sensor_id;sensor_type;location;lat;lon;timestamp;pressure;altitude;pressure_sealevel;temperature
29701;BMP280;57917;51.380;-0.176;2023-07-24T00:04:59;100062.72;;;17.96
29701;BMP280;57917;51.380;-0.176;2023-07-24T00:10:50;100069.41;;;18.02
29701;BMP280;57917;51.380;-0.176;2023-07-24T00:16:39;100063.34;;;18.05
29701;BMP280;57917;51.380;-0.176;2023-07-24T00:22:26;100066.28;;;18.00
29701;BMP280;57917;51.380;-0.176;2023-07-24T00:28:13;100064.91;;;18.06
29701;BMP280;57917;51.380;-0.176;2023-07-24T00:34:00;100063.13;;;17.98
29701;BMP280;57917;51.380;-0.176;2023-07-24T00:39:49;100053.59;;;17.85
29701;BMP280;57917;51.380;-0.176;2023-07-24T00:45:38;100045.22;;;17.86
29701;BMP280;57917;51.380;-0.176;2023-07-24T00:51:26;100055.94;;;17.86
29701;BMP280;57917;51.380;-0.176;2023-07-24T00:57:22;100045.41;;;17.93
29701;BMP280;57917;51.380;-0.176;2023-07-24T01:03:15;100047.16;;;17.74
29701;BMP280;57917;51.380;-0.176;2023-07-24T01:09:03;100046.72;;;17.99
29701;BMP280;57917;51.380;-0.176;2023-07-24T01:14:55;100040.81;;;18.06
29701;BMP280;57917;51.380;-0.176;2023-07-24T01:20:55;100036.47;;;18.01
29701;BMP280;57917;51.380;-0.176;2023-07-24T01:26:45;100022.78;;;17.91
29701;BMP280;57917;51.380;-0.176;2023-07-24T01:32:35;100029.78;;;17.95
29701;BMP280;57917;51.380;-0.176;2023-07-24T01:38:26;100036.03;;;17.99
29701;BMP280;57917;51.380;-0.176;2023-07-24T01:44:17;100027.91;;;17.96
29701;BMP280;57917;51.380;-0.176;2023-07-24T01:50:07;100018.50;;;18.02
29701;BMP280;57917;51.380;-0.176;2023-07-24T01:55:54;100017.34;;;18.03
29701;BMP280;57917;51.380;-0.176;2023-07-24T02:01:40;100019.88;;;17.96
29701;BMP280;57917;51.380;-0.176;2023-07-24T02:07:29;100021.44;;;17.97
29701;BMP280;57917;51.380;-0.176;2023-07-24T02:13:18;100014.94;;;17.98
29701;BMP280;57917;51.380;-0.176;2023-07-24T02:19:09;100006.56;;;17.99
29701;BMP280;57917;51.380;-0.176;2023-07-24T02:24:59;100000.63;;;18.06
29701;BMP280;57917;51.380;-0.176;2023-07-24T02:30:47;100002.97;;;17.80
29701;BMP280;57917;51.380;-0.176;2023-07-24T02:36:34;100001.91;;;17.96
29701;BMP280;57917;51.380;-0.176;2023-07-24T02:42:23;100002.88;;;18.04
29701;BMP280;57917;51.380;-0.176;2023-07-24T02:48:12;100002.59;;;18.09
29701;BMP280;57917;51.380;-0.176;2023-07-24T02:54:02;99989.41;;;18.00
29701;BMP280;57917;51.380;-0.176;2023-07-24T02:59:49;99982.91;;;18.01
29701;BMP280;57917;51.380;-0.176;2023-07-24T03:05:36;99994.91;;;18.07
29701;BMP280;57917;51.380;-0.176;2023-07-24T03:11:28;99983.50;;;17.95
29701;BMP280;57917;51.380;-0.176;2023-07-24T03:17:17;99982.66;;;17.79
29701;BMP280;57917;51.380;-0.176;2023-07-24T03:23:04;99978.72;;;17.88
29701;BMP280;57917;51.380;-0.176;2023-07-24T03:28:53;99992.00;;;17.85
29701;BMP280;57917;51.380;-0.176;2023-07-24T03:34:40;99990.69;;;17.79
29701;BMP280;57917;51.380;-0.176;2023-07-24T03:40:27;99973.50;;;17.80
29701;BMP280;57917;51.380;-0.176;2023-07-24T03:46:14;99978.22;;;17.83
29701;BMP280;57917;51.380;-0.176;2023-07-24T03:52:01;99983.69;;;17.74
29701;BMP280;57917;51.380;-0.176;2023-07-24T03:57:48;99994.06;;;17.76
29701;BMP280;57917;51.380;-0.176;2023-07-24T04:03:39;99995.47;;;17.85
29701;BMP280;57917;51.380;-0.176;2023-07-24T04:09:28;99996.22;;;17.70
29701;BMP280;57917;51.380;-0.176;2023-07-24T04:15:15;100002.63;;;17.54
29701;BMP280;57917;51.380;-0.176;2023-07-24T04:21:02;100002.34;;;17.71
29701;BMP280;57917;51.380;-0.176;2023-07-24T04:26:51;99992.50;;;17.75
29701;BMP280;57917;51.380;-0.176;2023-07-24T04:32:38;100007.03;;;17.74
29701;BMP280;57917;51.380;-0.176;2023-07-24T04:38:27;100007.28;;;17.69
29701;BMP280;57917;51.380;-0.176;2023-07-24T04:44:14;100009.34;;;17.75
29701;BMP280;57917;51.380;-0.176;2023-07-24T04:50:03;100009.69;;;17.74
29701;BMP280;57917;51.380;-0.176;2023-07-24T04:55:49;100007.56;;;17.79
29701;BMP280;57917;51.380;-0.176;2023-07-24T05:01:39;100019.56;;;17.85
29701;BMP280;57917;51.380;-0.176;2023-07-24T05:07:30;100020.16;;;17.79
29701;BMP280;57917;51.380;-0.176;2023-07-24T05:13:16;100020.25;;;17.82
29701;BMP280;57917;51.380;-0.176;2023-07-24T05:19:04;100011.44;;;17.82
29701;BMP280;57917;51.380;-0.176;2023-07-24T05:24:53;100014.38;;;17.77
29701;BMP280;57917;51.380;-0.176;2023-07-24T05:30:41;100018.63;;;17.93
29701;BMP280;57917;51.380;-0.176;2023-07-24T05:36:30;100012.69;;;18.58
29701;BMP280;57917;51.380;-0.176;2023-07-24T05:42:19;100009.78;;;18.67
29701;BMP280;57917;51.380;-0.176;2023-07-24T05:48:06;100015.00;;;18.60
29701;BMP280;57917;51.380;-0.176;2023-07-24T05:53:54;100021.81;;;18.42
29701;BMP280;57917;51.380;-0.176;2023-07-24T05:59:41;100021.13;;;18.45
29701;BMP280;57917;51.380;-0.176;2023-07-24T06:05:30;100010.41;;;18.45
29701;BMP280;57917;51.380;-0.176;2023-07-24T06:11:22;100016.63;;;18.49
29701;BMP280;57917;51.380;-0.176;2023-07-24T06:17:11;100028.13;;;18.34
29701;BMP280;57917;51.380;-0.176;2023-07-24T06:22:59;100039.84;;;18.14
29701;BMP280;57917;51.380;-0.176;2023-07-24T06:28:45;100034.78;;;18.24
29701;BMP280;57917;51.380;-0.176;2023-07-24T06:34:36;100042.59;;;18.29
29701;BMP280;57917;51.380;-0.176;2023-07-24T06:40:23;100042.53;;;18.14
29701;BMP280;57917;51.380;-0.176;2023-07-24T06:46:10;100050.16;;;18.27
29701;BMP280;57917;51.380;-0.176;2023-07-24T06:51:57;100047.31;;;18.20
29701;BMP280;57917;51.380;-0.176;2023-07-24T06:57:44;100049.47;;;18.30
29701;BMP280;57917;51.380;-0.176;2023-07-24T07:03:32;100047.31;;;18.36
29701;BMP280;57917;51.380;-0.176;2023-07-24T07:09:26;100059.03;;;18.43
29701;BMP280;57917;51.380;-0.176;2023-07-24T07:15:15;100057.56;;;18.46
29701;BMP280;57917;51.380;-0.176;2023-07-24T07:21:04;100055.34;;;18.67
29701;BMP280;57917;51.380;-0.176;2023-07-24T07:26:55;100067.16;;;18.78
29701;BMP280;57917;51.380;-0.176;2023-07-24T07:32:44;100058.34;;;18.62
29701;BMP280;57917;51.380;-0.176;2023-07-24T07:38:40;100057.03;;;18.87
29701;BMP280;57917;51.380;-0.176;2023-07-24T07:44:27;100060.56;;;18.91
29701;BMP280;57917;51.380;-0.176;2023-07-24T07:50:21;100059.31;;;19.20
29701;BMP280;57917;51.380;-0.176;2023-07-24T07:56:08;100057.59;;;19.84
29701;BMP280;57917;51.380;-0.176;2023-07-24T08:01:55;100049.50;;;20.03
29701;BMP280;57917;51.380;-0.176;2023-07-24T08:07:45;100044.56;;;20.05
29701;BMP280;57917;51.380;-0.176;2023-07-24T08:13:34;100047.97;;;20.25
29701;BMP280;57917;51.380;-0.176;2023-07-24T08:19:28;100048.09;;;20.54
29701;BMP280;57917;51.380;-0.176;2023-07-24T08:25:16;100041.56;;;20.81
29701;BMP280;57917;51.380;-0.176;2023-07-24T08:31:06;100036.47;;;20.99
29701;BMP280;57917;51.380;-0.176;2023-07-24T08:36:55;100035.88;;;21.42
29701;BMP280;57917;51.380;-0.176;2023-07-24T08:42:43;100038.81;;;21.30
29701;BMP280;57917;51.380;-0.176;2023-07-24T08:48:33;100039.00;;;21.47
29701;BMP280;57917;51.380;-0.176;2023-07-24T08:54:26;100031.66;;;21.44
29701;BMP280;57917;51.380;-0.176;2023-07-24T09:00:15;100053.47;;;19.52
29701;BMP280;57917;51.380;-0.176;2023-07-24T09:06:09;100124.56;;;17.55
29701;BMP280;57917;51.380;-0.176;2023-07-24T09:11:57;100128.84;;;16.96
29701;BMP280;57917;51.380;-0.176;2023-07-24T09:17:52;100141.72;;;16.82
29701;BMP280;57917;51.380;-0.176;2023-07-24T09:23:41;100133.53;;;16.66
29701;BMP280;57917;51.380;-0.176;2023-07-24T09:29:31;100138.44;;;16.76
29701;BMP280;57917;51.380;-0.176;2023-07-24T09:35:20;100143.88;;;17.36
29701;BMP280;57917;51.380;-0.176;2023-07-24T09:41:13;100134.63;;;16.86
29701;BMP280;57917;51.380;-0.176;2023-07-24T09:47:05;100144.75;;;16.92
29701;BMP280;57917;51.380;-0.176;2023-07-24T09:59:20;100169.47;;;17.01
29701;BMP280;57917;51.380;-0.176;2023-07-24T10:05:11;100169.44;;;16.77
29701;BMP280;57917;51.380;-0.176;2023-07-24T10:10:58;100158.63;;;17.06
29701;BMP280;57917;51.380;-0.176;2023-07-24T10:16:46;100181.81;;;16.82
29701;BMP280;57917;51.380;-0.176;2023-07-24T10:22:36;100181.41;;;16.92
29701;BMP280;57917;51.380;-0.176;2023-07-24T10:28:35;100196.91;;;16.86
29701;BMP280;57917;51.380;-0.176;2023-07-24T10:34:38;100194.81;;;17.04
29701;BMP280;57917;51.380;-0.176;2023-07-24T10:40:32;100203.25;;;16.94
29701;BMP280;57917;51.380;-0.176;2023-07-24T10:46:23;100203.66;;;16.84
29701;BMP280;57917;51.380;-0.176;2023-07-24T10:52:12;100205.47;;;16.59
29701;BMP280;57917;51.380;-0.176;2023-07-24T10:57:58;100221.50;;;16.92
29701;BMP280;57917;51.380;-0.176;2023-07-24T11:03:50;100230.84;;;16.86
29701;BMP280;57917;51.380;-0.176;2023-07-24T11:09:40;100226.69;;;17.09
29701;BMP280;57917;51.380;-0.176;2023-07-24T11:15:30;100248.88;;;17.21
29701;BMP280;57917;51.380;-0.176;2023-07-24T11:21:19;100257.00;;;17.13
29701;BMP280;57917;51.380;-0.176;2023-07-24T11:27:13;100258.31;;;17.07
29701;BMP280;57917;51.380;-0.176;2023-07-24T11:33:09;100278.06;;;16.82
29701;BMP280;57917;51.380;-0.176;2023-07-24T11:38:56;100274.13;;;17.00
29701;BMP280;57917;51.380;-0.176;2023-07-24T11:44:46;100281.44;;;16.91
29701;BMP280;57917;51.380;-0.176;2023-07-24T11:50:41;100276.72;;;17.08
29701;BMP280;57917;51.380;-0.176;2023-07-24T11:56:33;100283.53;;;17.18
29701;BMP280;57917;51.380;-0.176;2023-07-24T12:02:28;100274.03;;;17.65
29701;BMP280;57917;51.380;-0.176;2023-07-24T12:08:16;100283.44;;;17.59
29701;BMP280;57917;51.380;-0.176;2023-07-24T12:14:04;100281.91;;;17.25
29701;BMP280;57917;51.380;-0.176;2023-07-24T12:19:53;100287.47;;;17.32
29701;BMP280;57917;51.380;-0.176;2023-07-24T12:25:40;100292.72;;;17.29
29701;BMP280;57917;51.380;-0.176;2023-07-24T12:31:29;100314.03;;;17.05
29701;BMP280;57917;51.380;-0.176;2023-07-24T12:37:27;100315.53;;;17.26
29701;BMP280;57917;51.380;-0.176;2023-07-24T12:43:19;100308.41;;;17.63
29701;BMP280;57917;51.380;-0.176;2023-07-24T12:49:07;100312.22;;;17.86
29701;BMP280;57917;51.380;-0.176;2023-07-24T12:54:54;100314.19;;;17.65
29701;BMP280;57917;51.380;-0.176;2023-07-24T13:00:48;100326.59;;;17.25
29701;BMP280;57917;51.380;-0.176;2023-07-24T13:06:38;100328.56;;;17.16
29701;BMP280;57917;51.380;-0.176;2023-07-24T13:12:29;100325.31;;;17.55
29701;BMP280;57917;51.380;-0.176;2023-07-24T13:18:19;100328.56;;;17.16
29701;BMP280;57917;51.380;-0.176;2023-07-24T13:24:14;100338.28;;;17.20
29701;BMP280;57917;51.380;-0.176;2023-07-24T13:30:01;100339.94;;;17.45
29701;BMP280;57917;51.380;-0.176;2023-07-24T13:35:52;100338.19;;;17.29
29701;BMP280;57917;51.380;-0.176;2023-07-24T13:41:50;100353.16;;;17.09
29701;BMP280;57917;51.380;-0.176;2023-07-24T13:47:42;100362.94;;;16.85
29701;BMP280;57917;51.380;-0.176;2023-07-24T13:53:36;100355.34;;;16.87
29701;BMP280;57917;51.380;-0.176;2023-07-24T13:59:26;100364.72;;;16.81
29701;BMP280;57917;51.380;-0.176;2023-07-24T14:05:18;100362.81;;;17.02
29701;BMP280;57917;51.380;-0.176;2023-07-24T14:11:09;100360.88;;;17.11
29701;BMP280;57917;51.380;-0.176;2023-07-24T14:16:55;100345.72;;;17.47
29701;BMP280;57917;51.380;-0.176;2023-07-24T14:22:44;100345.81;;;17.39
29701;BMP280;57917;51.380;-0.176;2023-07-24T14:28:38;100363.28;;;17.36
29701;BMP280;57917;51.380;-0.176;2023-07-24T14:34:26;100372.06;;;17.25
29701;BMP280;57917;51.380;-0.176;2023-07-24T14:40:22;100372.50;;;17.27
29701;BMP280;57917;51.380;-0.176;2023-07-24T14:46:09;100382.78;;;17.25
29701;BMP280;57917;51.380;-0.176;2023-07-24T14:52:00;100378.72;;;17.19
29701;BMP280;57917;51.380;-0.176;2023-07-24T14:57:47;100384.97;;;17.23
29701;BMP280;57917;51.380;-0.176;2023-07-24T15:03:35;100392.09;;;17.51
29701;BMP280;57917;51.380;-0.176;2023-07-24T15:09:25;100392.97;;;17.43
29701;BMP280;57917;51.380;-0.176;2023-07-24T15:15:24;100391.81;;;17.65
29701;BMP280;57917;51.380;-0.176;2023-07-24T15:21:14;100393.84;;;17.68
29701;BMP280;57917;51.380;-0.176;2023-07-24T15:27:04;100388.22;;;18.05
29701;BMP280;57917;51.380;-0.176;2023-07-24T15:33:01;100383.63;;;17.94
29701;BMP280;57917;51.380;-0.176;2023-07-24T15:38:50;100381.66;;;18.15
29701;BMP280;57917;51.380;-0.176;2023-07-24T15:44:39;100382.41;;;18.03
29701;BMP280;57917;51.380;-0.176;2023-07-24T15:50:26;100386.63;;;18.40
29701;BMP280;57917;51.380;-0.176;2023-07-24T15:56:13;100384.19;;;18.11
29701;BMP280;57917;51.380;-0.176;2023-07-24T16:02:04;100381.16;;;18.61
29701;BMP280;57917;51.380;-0.176;2023-07-24T16:07:54;100378.75;;;18.84
29701;BMP280;57917;51.380;-0.176;2023-07-24T16:13:42;100386.03;;;18.83
29701;BMP280;57917;51.380;-0.176;2023-07-24T16:19:33;100393.38;;;18.86
29701;BMP280;57917;51.380;-0.176;2023-07-24T16:25:25;100388.88;;;18.90
29701;BMP280;57917;51.380;-0.176;2023-07-24T16:31:14;100379.41;;;18.81
29701;BMP280;57917;51.380;-0.176;2023-07-24T16:37:08;100382.66;;;19.14
29701;BMP280;57917;51.380;-0.176;2023-07-24T16:43:06;100377.22;;;19.10
29701;BMP280;57917;51.380;-0.176;2023-07-24T16:48:56;100384.91;;;18.84
29701;BMP280;57917;51.380;-0.176;2023-07-24T16:54:43;100414.91;;;18.38
29701;BMP280;57917;51.380;-0.176;2023-07-24T17:00:31;100432.59;;;17.50
29701;BMP280;57917;51.380;-0.176;2023-07-24T17:06:19;100440.19;;;17.07
29701;BMP280;57917;51.380;-0.176;2023-07-24T17:12:09;100438.34;;;16.70
29701;BMP280;57917;51.380;-0.176;2023-07-24T17:18:00;100432.53;;;16.68
29701;BMP280;57917;51.380;-0.176;2023-07-24T17:23:54;100429.72;;;16.93
29701;BMP280;57917;51.380;-0.176;2023-07-24T17:29:44;100417.31;;;16.89
29701;BMP280;57917;51.380;-0.176;2023-07-24T17:35:32;100408.72;;;17.04
29701;BMP280;57917;51.380;-0.176;2023-07-24T17:41:20;100405.47;;;17.19
29701;BMP280;57917;51.380;-0.176;2023-07-24T17:47:07;100421.09;;;17.49
29701;BMP280;57917;51.380;-0.176;2023-07-24T17:52:55;100410.34;;;17.70
29701;BMP280;57917;51.380;-0.176;2023-07-24T17:58:44;100426.56;;;17.73
29701;BMP280;57917;51.380;-0.176;2023-07-24T18:04:37;100422.88;;;17.78
29701;BMP280;57917;51.380;-0.176;2023-07-24T18:10:24;100427.53;;;17.69
29701;BMP280;57917;51.380;-0.176;2023-07-24T18:16:13;100432.78;;;17.45
29701;BMP280;57917;51.380;-0.176;2023-07-24T18:22:03;100442.78;;;17.36
29701;BMP280;57917;51.380;-0.176;2023-07-24T18:27:53;100444.31;;;17.25
29701;BMP280;57917;51.380;-0.176;2023-07-24T18:33:45;100441.63;;;17.25
29701;BMP280;57917;51.380;-0.176;2023-07-24T18:39:34;100459.59;;;17.36
29701;BMP280;57917;51.380;-0.176;2023-07-24T18:45:21;100452.06;;;17.71
29701;BMP280;57917;51.380;-0.176;2023-07-24T18:51:11;100448.22;;;17.60
29701;BMP280;57917;51.380;-0.176;2023-07-24T18:57:00;100464.97;;;17.57
29701;BMP280;57917;51.380;-0.176;2023-07-24T19:02:49;100471.59;;;17.71
29701;BMP280;57917;51.380;-0.176;2023-07-24T19:08:38;100475.16;;;17.96
29701;BMP280;57917;51.380;-0.176;2023-07-24T19:14:28;100483.66;;;18.10
29701;BMP280;57917;51.380;-0.176;2023-07-24T19:20:17;100489.44;;;18.00
29701;BMP280;57917;51.380;-0.176;2023-07-24T19:26:06;100505.09;;;18.10
29701;BMP280;57917;51.380;-0.176;2023-07-24T19:31:58;100494.38;;;18.10
29701;BMP280;57917;51.380;-0.176;2023-07-24T19:37:48;100503.41;;;18.05
29701;BMP280;57917;51.380;-0.176;2023-07-24T19:43:39;100501.84;;;18.04
29701;BMP280;57917;51.380;-0.176;2023-07-24T19:49:27;100498.78;;;17.94
29701;BMP280;57917;51.380;-0.176;2023-07-24T19:55:16;100518.00;;;17.96
29701;BMP280;57917;51.380;-0.176;2023-07-24T20:01:08;100511.66;;;17.80
29701;BMP280;57917;51.380;-0.176;2023-07-24T20:07:00;100514.31;;;17.68
29701;BMP280;57917;51.380;-0.176;2023-07-24T20:12:55;100509.59;;;16.66
29701;BMP280;57917;51.380;-0.176;2023-07-24T20:18:45;100519.25;;;16.50
29701;BMP280;57917;51.380;-0.176;2023-07-24T20:24:35;100504.97;;;16.46
29701;BMP280;57917;51.380;-0.176;2023-07-24T20:30:31;100520.69;;;16.85
29701;BMP280;57917;51.380;-0.176;2023-07-24T20:36:20;100525.00;;;16.69
29701;BMP280;57917;51.380;-0.176;2023-07-24T20:42:08;100519.34;;;16.70
29701;BMP280;57917;51.380;-0.176;2023-07-24T20:47:58;100510.41;;;16.58
29701;BMP280;57917;51.380;-0.176;2023-07-24T20:53:48;100523.97;;;16.53
29701;BMP280;57917;51.380;-0.176;2023-07-24T20:59:36;100517.53;;;16.45
29701;BMP280;57917;51.380;-0.176;2023-07-24T21:05:25;100516.50;;;16.67
29701;BMP280;57917;51.380;-0.176;2023-07-24T21:11:15;100525.56;;;16.83
29701;BMP280;57917;51.380;-0.176;2023-07-24T21:17:07;100531.06;;;16.49
29701;BMP280;57917;51.380;-0.176;2023-07-24T21:22:56;100532.75;;;16.53
29701;BMP280;57917;51.380;-0.176;2023-07-24T21:28:45;100542.31;;;16.63
29701;BMP280;57917;51.380;-0.176;2023-07-24T21:34:37;100551.72;;;16.69
29701;BMP280;57917;51.380;-0.176;2023-07-24T21:40:26;100556.50;;;17.01
29701;BMP280;57917;51.380;-0.176;2023-07-24T21:46:13;100547.06;;;16.95
29701;BMP280;57917;51.380;-0.176;2023-07-24T21:52:06;100558.91;;;17.14
29701;BMP280;57917;51.380;-0.176;2023-07-24T21:57:55;100566.34;;;17.09
29701;BMP280;57917;51.380;-0.176;2023-07-24T22:03:43;100550.00;;;17.02
29701;BMP280;57917;51.380;-0.176;2023-07-24T22:09:31;100559.22;;;16.84
29701;BMP280;57917;51.380;-0.176;2023-07-24T22:15:23;100553.25;;;16.78
29701;BMP280;57917;51.380;-0.176;2023-07-24T22:21:12;100552.41;;;16.57
29701;BMP280;57917;51.380;-0.176;2023-07-24T22:27:00;100548.50;;;16.38
29701;BMP280;57917;51.380;-0.176;2023-07-24T22:32:47;100550.59;;;16.23
29701;BMP280;57917;51.380;-0.176;2023-07-24T22:38:48;100554.34;;;16.22
29701;BMP280;57917;51.380;-0.176;2023-07-24T22:44:42;100573.81;;;16.49
29701;BMP280;57917;51.380;-0.176;2023-07-24T22:50:45;100575.41;;;16.24
29701;BMP280;57917;51.380;-0.176;2023-07-24T22:56:35;100572.75;;;16.15
29701;BMP280;57917;51.380;-0.176;2023-07-24T23:02:23;100582.94;;;16.13
29701;BMP280;57917;51.380;-0.176;2023-07-24T23:08:10;100583.91;;;16.17
29701;BMP280;57917;51.380;-0.176;2023-07-24T23:14:05;100590.66;;;16.23
29701;BMP280;57917;51.380;-0.176;2023-07-24T23:19:52;100586.09;;;16.15
29701;BMP280;57917;51.380;-0.176;2023-07-24T23:25:39;100588.41;;;15.83
29701;BMP280;57917;51.380;-0.176;2023-07-24T23:31:29;100595.34;;;15.84
29701;BMP280;57917;51.380;-0.176;2023-07-24T23:37:18;100591.91;;;15.92
29701;BMP280;57917;51.380;-0.176;2023-07-24T23:43:07;100587.44;;;15.62
29701;BMP280;57917;51.380;-0.176;2023-07-24T23:48:54;100596.47;;;15.91
29701;BMP280;57917;51.380;-0.176;2023-07-24T23:54:42;100586.72;;;15.61
